Time;durP1;ratioP1;P1;durP2;ratioP2;P2;SDS_P1;SDS_P2;PMS_P1;PMS_P2;Temp;Humidity;BMP_temperature;BMP_pressure;BME280_temperature;BME280_humidity;BME280_pressure;Samples;Min_cycle;Max_cycle;Signal;HPM_P1;HPM_P2
2021/06/26 00:01:43;;;;;;;12.98;3.45;;;;;;;;;;5110362;28;20068;-72
2021/06/26 00:04:10;;;;;;;15.77;2.30;;;;;;;;;;5110402;28;20080;-72
2021/06/26 00:06:36;;;;;;;6.40;1.98;;;;;;;;;;5109930;28;20128;-72
2021/06/26 00:09:03;;;;;;;15.23;4.90;;;;;;;;;;5109106;28;20032;-73
2021/06/26 00:11:29;;;;;;;10.05;2.63;;;;;;;;;;5110566;28;20020;-72
2021/06/26 00:13:55;;;;;;;14.13;2.97;;;;;;;;;;5110029;28;20644;-72
2021/06/26 00:16:21;;;;;;;9.90;2.70;;;;;;;;;;5110311;28;20027;-73
2021/06/26 00:18:47;;;;;;;9.00;2.80;;;;;;;;;;5110031;28;20032;-72
2021/06/26 00:21:14;;;;;;;12.32;2.20;;;;;;;;;;5109741;28;20049;-73
2021/06/26 00:23:40;;;;;;;7.50;3.78;;;;;;;;;;5110025;28;20020;-73
2021/06/26 00:26:50;;;;;;;16.92;2.50;;;;;;;;;;5110532;27;20377;-72
2021/06/26 00:33:10;;;;;;;7.55;1.90;;;;;;;;;;5070023;28;20513;-72
2021/06/26 00:35:36;;;;;;;9.48;2.72;;;;;;;;;;5069606;28;20098;-72
2021/06/26 00:38:02;;;;;;;9.57;2.67;;;;;;;;;;5069807;28;20029;-73
2021/06/26 00:40:28;;;;;;;8.30;2.35;;;;;;;;;;5069721;28;20537;-72
2021/06/26 00:42:54;;;;;;;8.65;2.35;;;;;;;;;;5069245;28;20028;-73
2021/06/26 00:45:21;;;;;;;6.50;1.65;;;;;;;;;;5069973;28;20025;-72
2021/06/26 00:47:47;;;;;;;11.07;3.28;;;;;;;;;;5069651;28;20017;-72
2021/06/26 00:50:19;;;;;;;12.63;2.55;;;;;;;;;;5069107;28;20032;-73
2021/06/26 00:52:45;;;;;;;7.65;2.20;;;;;;;;;;5068248;28;20595;-72
2021/06/26 00:55:12;;;;;;;6.78;2.20;;;;;;;;;;5069679;28;20036;-72
2021/06/26 00:57:41;;;;;;;8.40;2.28;;;;;;;;;;5069024;28;20029;-72
2021/06/26 01:00:08;;;;;;;7.13;1.90;;;;;;;;;;5068190;28;20024;-72
2021/06/26 01:02:34;;;;;;;10.50;2.45;;;;;;;;;;5068789;28;20025;-72
2021/06/26 01:05:00;;;;;;;8.52;2.55;;;;;;;;;;5068020;28;20029;-72
2021/06/26 01:07:26;;;;;;;10.63;2.42;;;;;;;;;;5069211;28;20032;-72
2021/06/26 01:09:52;;;;;;;9.75;2.20;;;;;;;;;;5068744;28;20070;-73
2021/06/26 01:12:50;;;;;;;4.80;2.20;;;;;;;;;;5110421;27;20412;-72
2021/06/26 01:15:50;;;;;;;16.50;3.03;;;;;;;;;;5110561;27;20942;-72
2021/06/26 01:18:16;;;;;;;11.85;2.22;;;;;;;;;;5110076;28;20472;-72
2021/06/26 01:20:42;;;;;;;12.38;3.25;;;;;;;;;;5110356;28;20041;-72
2021/06/26 01:23:57;;;;;;;15.38;3.42;;;;;;;;;;5110737;27;20513;-72
2021/06/26 01:26:28;;;;;;;12.43;2.67;;;;;;;;;;5110349;28;20031;-72
2021/06/26 01:28:57;;;;;;;10.27;2.83;;;;;;;;;;5109021;28;20107;-72
2021/06/26 01:33:58;;;;;;;13.02;3.17;;;;;;;;;;5110589;27;20408;-72
2021/06/26 01:36:24;;;;;;;10.43;3.55;;;;;;;;;;5110736;28;20097;-72
2021/06/26 01:38:54;;;;;;;11.43;2.60;;;;;;;;;;5110315;28;20024;-72
2021/06/26 01:41:21;;;;;;;8.57;2.22;;;;;;;;;;5110407;28;20020;-72
2021/06/26 01:43:47;;;;;;;8.65;2.50;;;;;;;;;;5110318;28;20094;-73
2021/06/26 01:46:13;;;;;;;12.23;2.83;;;;;;;;;;5109837;28;20024;-72
2021/06/26 01:48:39;;;;;;;8.68;2.60;;;;;;;;;;5110225;28;20049;-72
2021/06/26 01:53:01;;;;;;;8.85;2.85;;;;;;;;;;5110141;27;20400;-72
2021/06/26 01:55:27;;;;;;;8.18;2.35;;;;;;;;;;5110693;28;20027;-72
2021/06/26 01:57:54;;;;;;;8.95;2.33;;;;;;;;;;5110484;28;20028;-73
2021/06/26 02:00:31;;;;;;;12.63;2.53;;;;;;;;;;5172167;27;20317;-72
2021/06/26 02:02:57;;;;;;;9.30;2.85;;;;;;;;;;5133038;27;20034;-72
2021/06/26 02:05:23;;;;;;;6.75;1.60;;;;;;;;;;5151738;27;20019;-72
2021/06/26 02:07:50;;;;;;;7.28;2.63;;;;;;;;;;5151255;27;20027;-72
2021/06/26 02:10:16;;;;;;;11.00;2.70;;;;;;;;;;5133127;27;20479;-72
2021/06/26 02:12:43;;;;;;;11.38;3.22;;;;;;;;;;5151402;27;20054;-72
2021/06/26 02:15:10;;;;;;;8.88;2.15;;;;;;;;;;5151106;27;20038;-72
2021/06/26 02:17:36;;;;;;;11.55;2.75;;;;;;;;;;5151383;27;20019;-72
2021/06/26 02:20:03;;;;;;;10.13;2.95;;;;;;;;;;5132176;27;20490;-72
2021/06/26 02:22:29;;;;;;;8.88;1.95;;;;;;;;;;5151228;27;20019;-72
2021/06/26 02:24:55;;;;;;;9.82;2.97;;;;;;;;;;5151203;27;20471;-72
2021/06/26 02:27:22;;;;;;;10.25;2.20;;;;;;;;;;5150823;27;20038;-73
2021/06/26 02:29:48;;;;;;;9.02;2.17;;;;;;;;;;5151087;27;20033;-72
2021/06/26 02:32:14;;;;;;;6.78;1.83;;;;;;;;;;5132842;27;20034;-72
2021/06/26 02:34:40;;;;;;;7.82;2.47;;;;;;;;;;5150720;27;20453;-72
2021/06/26 02:38:01;;;;;;;9.32;2.35;;;;;;;;;;5110538;27;20517;-72
2021/06/26 02:40:27;;;;;;;9.98;2.58;;;;;;;;;;5110436;28;20030;-72
2021/06/26 02:45:20;;;;;;;10.13;2.90;;;;;;;;;;5110564;27;20400;-72
2021/06/26 02:50:01;;;;;;;7.68;2.10;;;;;;;;;;5110138;27;20376;-72
2021/06/26 02:52:27;;;;;;;9.55;2.05;;;;;;;;;;5110563;28;20020;-72
2021/06/26 02:54:53;;;;;;;10.32;2.08;;;;;;;;;;5110621;28;20030;-72
2021/06/26 02:58:22;;;;;;;11.02;2.83;;;;;;;;;;5110469;27;20415;-72
2021/06/26 03:02:07;;;;;;;7.85;1.88;;;;;;;;;;5110143;27;20450;-72
2021/06/26 03:06:22;;;;;;;8.95;2.28;;;;;;;;;;5110465;27;20393;-73
2021/06/26 03:10:42;;;;;;;15.48;2.40;;;;;;;;;;5110321;27;20412;-72
2021/06/26 03:13:08;;;;;;;9.25;2.33;;;;;;;;;;5126525;28;20024;-72
2021/06/26 03:15:34;;;;;;;8.07;2.63;;;;;;;;;;5110414;28;20353;-72
2021/06/26 03:18:25;;;;;;;8.48;2.63;;;;;;;;;;5069683;28;20392;-72
2021/06/26 03:22:36;;;;;;;8.02;2.53;;;;;;;;;;5110505;27;20461;-72
2021/06/26 03:25:03;;;;;;;8.13;2.03;;;;;;;;;;5126008;28;20119;-72
2021/06/26 03:27:29;;;;;;;10.18;2.72;;;;;;;;;;5126203;28;20517;-72
2021/06/26 03:31:50;;;;;;;10.48;2.75;;;;;;;;;;5110350;27;20485;-72
2021/06/26 03:34:16;;;;;;;11.90;2.92;;;;;;;;;;5110542;28;20475;-72
2021/06/26 03:36:43;;;;;;;7.38;2.28;;;;;;;;;;5109118;28;20077;-72
2021/06/26 03:39:09;;;;;;;12.73;1.98;;;;;;;;;;5110056;28;20077;-73
2021/06/26 03:41:35;;;;;;;7.40;1.92;;;;;;;;;;5110308;28;20081;-73
2021/06/26 03:44:01;;;;;;;6.40;1.77;;;;;;;;;;5109009;28;20379;-73
2021/06/26 03:46:28;;;;;;;12.90;3.25;;;;;;;;;;5109838;28;20483;-72
2021/06/26 03:48:55;;;;;;;12.45;2.63;;;;;;;;;;5110238;28;20027;-72
2021/06/26 03:51:21;;;;;;;12.80;2.38;;;;;;;;;;5109945;28;20037;-72
2021/06/26 03:55:09;;;;;;;8.57;2.13;;;;;;;;;;5110412;27;20393;-72
2021/06/26 03:57:35;;;;;;;7.93;2.28;;;;;;;;;;5110530;28;20487;-72
2021/06/26 04:00:02;;;;;;;8.40;2.47;;;;;;;;;;5110004;28;20491;-72
2021/06/26 04:02:28;;;;;;;10.18;2.22;;;;;;;;;;5110340;28;20024;-73
2021/06/26 04:04:54;;;;;;;9.15;2.20;;;;;;;;;;5110538;28;20024;-72
2021/06/26 04:07:20;;;;;;;10.40;2.30;;;;;;;;;;5109888;28;20047;-73
2021/06/26 04:09:46;;;;;;;10.15;1.92;;;;;;;;;;5110257;28;20031;-72
2021/06/26 04:12:13;;;;;;;7.55;2.40;;;;;;;;;;5109076;28;20080;-73
2021/06/26 04:14:39;;;;;;;7.63;1.83;;;;;;;;;;5109684;28;20059;-72
2021/06/26 04:17:05;;;;;;;8.63;2.47;;;;;;;;;;5108914;28;20057;-73
2021/06/26 04:19:31;;;;;;;10.90;2.60;;;;;;;;;;5108404;28;20427;-73
2021/06/26 04:21:57;;;;;;;9.20;2.72;;;;;;;;;;5110077;28;20084;-73
2021/06/26 04:24:24;;;;;;;8.57;2.40;;;;;;;;;;5108689;28;20114;-73
2021/06/26 04:26:50;;;;;;;6.28;1.80;;;;;;;;;;5109652;28;20016;-73
2021/06/26 04:29:17;;;;;;;9.70;2.83;;;;;;;;;;5109887;28;20031;-73
2021/06/26 04:33:03;;;;;;;6.78;2.00;;;;;;;;;;5110767;27;20523;-72
2021/06/26 04:35:29;;;;;;;6.00;1.92;;;;;;;;;;5110124;28;20053;-72
2021/06/26 04:37:56;;;;;;;7.82;2.45;;;;;;;;;;5110369;28;20016;-72
2021/06/26 04:40:22;;;;;;;14.63;2.78;;;;;;;;;;5110461;28;20476;-72
2021/06/26 04:42:48;;;;;;;10.07;2.92;;;;;;;;;;5108702;28;20481;-72
2021/06/26 04:45:15;;;;;;;10.90;2.47;;;;;;;;;;5110351;28;20024;-72
2021/06/26 04:47:42;;;;;;;10.07;2.72;;;;;;;;;;5109918;28;20095;-72
2021/06/26 04:51:28;;;;;;;5.70;2.28;;;;;;;;;;5110597;27;20493;-72
2021/06/26 04:53:55;;;;;;;9.25;2.00;;;;;;;;;;5109428;28;20030;-72
2021/06/26 04:56:21;;;;;;;7.10;2.42;;;;;;;;;;5110067;28;20020;-72
2021/06/26 04:58:47;;;;;;;9.70;2.78;;;;;;;;;;5110647;28;20032;-72
2021/06/26 05:01:13;;;;;;;11.98;2.53;;;;;;;;;;5110299;28;20098;-72
2021/06/26 05:03:40;;;;;;;13.55;3.05;;;;;;;;;;5109857;28;20028;-72
2021/06/26 05:06:06;;;;;;;10.93;2.50;;;;;;;;;;5108928;28;20116;-72
2021/06/26 05:08:33;;;;;;;8.05;2.42;;;;;;;;;;5110219;28;20425;-72
2021/06/26 05:10:59;;;;;;;10.30;2.60;;;;;;;;;;5109841;28;20032;-73
2021/06/26 05:13:26;;;;;;;38.92;36.03;;;;;;;;;;5110388;28;20032;-72
2021/06/26 05:15:52;;;;;;;9.95;3.35;;;;;;;;;;5109937;28;20024;-72
2021/06/26 05:18:18;;;;;;;536.65;502.50;;;;;;;;;;5110078;28;20109;-72
2021/06/26 05:20:44;;;;;;;698.95;627.30;;;;;;;;;;5110031;28;20048;-72
2021/06/26 05:23:55;;;;;;;981.95;728.22;;;;;;;;;;5109978;27;21064;-72
2021/06/26 05:26:47;;;;;;;6.97;2.42;;;;;;;;;;5070075;28;20391;-72
2021/06/26 05:29:13;;;;;;;664.72;599.35;;;;;;;;;;5068679;28;20037;-72
2021/06/26 05:31:39;;;;;;;939.95;709.30;;;;;;;;;;5069463;28;20104;-72
2021/06/26 05:34:05;;;;;;;942.15;686.38;;;;;;;;;;5070002;28;20032;-72
2021/06/26 05:36:32;;;;;;;895.38;681.30;;;;;;;;;;5069794;28;20032;-72
2021/06/26 05:39:00;;;;;;;886.75;670.75;;;;;;;;;;5069253;28;20595;-73
2021/06/26 05:41:26;;;;;;;889.75;667.08;;;;;;;;;;5069674;28;20032;-73
2021/06/26 05:43:52;;;;;;;784.03;638.17;;;;;;;;;;5067869;28;20423;-72
2021/06/26 05:46:19;;;;;;;820.67;650.90;;;;;;;;;;5068240;28;20029;-73
2021/06/26 05:48:45;;;;;;;851.92;662.45;;;;;;;;;;5069868;28;20044;-73
2021/06/26 05:51:14;;;;;;;845.92;661.65;;;;;;;;;;5069713;28;20414;-72
2021/06/26 05:53:41;;;;;;;883.55;668.28;;;;;;;;;;5069663;28;20044;-73
2021/06/26 05:56:07;;;;;;;10.80;2.80;;;;;;;;;;5069542;28;20020;-73
2021/06/26 05:58:36;;;;;;;10.73;2.90;;;;;;;;;;5069056;28;20024;-73
2021/06/26 06:02:49;;;;;;;9.68;2.33;;;;;;;;;;5110353;27;20465;-72
2021/06/26 06:05:15;;;;;;;237.95;225.25;;;;;;;;;;5126337;28;20032;-72
2021/06/26 06:09:27;;;;;;;789.72;690.25;;;;;;;;;;5110410;27;20404;-72
2021/06/26 06:11:53;;;;;;;14.23;4.13;;;;;;;;;;5110008;28;20028;-72
2021/06/26 06:14:19;;;;;;;10.57;3.15;;;;;;;;;;5109310;28;20073;-72
2021/06/26 06:16:46;;;;;;;13.85;5.72;;;;;;;;;;5110415;28;20020;-72
2021/06/26 06:19:12;;;;;;;234.85;212.38;;;;;;;;;;5109884;28;20019;-72
2021/06/26 06:21:38;;;;;;;10.55;2.53;;;;;;;;;;5110293;28;20032;-72
2021/06/26 06:24:05;;;;;;;15.75;4.20;;;;;;;;;;5108937;28;20077;-72
2021/06/26 06:26:31;;;;;;;12.27;3.45;;;;;;;;;;5109760;28;20055;-72
2021/06/26 06:28:57;;;;;;;14.07;2.85;;;;;;;;;;5110003;28;20043;-72
2021/06/26 06:31:23;;;;;;;223.63;207.57;;;;;;;;;;5110123;28;20068;-73
2021/06/26 06:33:49;;;;;;;96.40;79.18;;;;;;;;;;5109971;28;20034;-73
2021/06/26 06:36:16;;;;;;;656.53;579.97;;;;;;;;;;5110252;28;20437;-73
2021/06/26 06:38:42;;;;;;;11.10;2.67;;;;;;;;;;5109978;28;20024;-73
2021/06/26 06:41:08;;;;;;;12.07;2.38;;;;;;;;;;5109601;28;20020;-73
2021/06/26 06:43:34;;;;;;;28.08;11.55;;;;;;;;;;5109878;28;20035;-73
2021/06/26 06:46:03;;;;;;;16.92;4.20;;;;;;;;;;5109915;28;20055;-73
2021/06/26 06:48:30;;;;;;;8.20;2.58;;;;;;;;;;5109657;28;20046;-72
2021/06/26 06:50:56;;;;;;;11.57;2.50;;;;;;;;;;5108501;28;20123;-73
2021/06/26 06:53:22;;;;;;;13.15;3.28;;;;;;;;;;5108492;28;20031;-73
2021/06/26 06:55:52;;;;;;;11.15;4.13;;;;;;;;;;5109149;28;20024;-73
2021/06/26 06:58:21;;;;;;;808.10;718.85;;;;;;;;;;5109531;28;20031;-73
2021/06/26 07:00:48;;;;;;;41.03;20.52;;;;;;;;;;5108295;28;20024;-74
2021/06/26 07:03:14;;;;;;;10.75;2.92;;;;;;;;;;5109092;28;20024;-75
2021/06/26 07:05:40;;;;;;;9.60;3.35;;;;;;;;;;5109482;28;20020;-74
2021/06/26 07:08:07;;;;;;;14.05;2.50;;;;;;;;;;5109031;28;20560;-73
2021/06/26 07:10:33;;;;;;;13.13;2.63;;;;;;;;;;5108188;28;20383;-73
2021/06/26 07:12:59;;;;;;;6.18;2.13;;;;;;;;;;5109469;28;20020;-73
2021/06/26 07:15:25;;;;;;;9.07;2.90;;;;;;;;;;5109047;28;20062;-73
2021/06/26 07:17:51;;;;;;;11.07;2.42;;;;;;;;;;5109279;28;20035;-73
2021/06/26 07:20:18;;;;;;;11.88;2.38;;;;;;;;;;5098391;28;20388;-73
2021/06/26 07:22:44;;;;;;;15.77;3.15;;;;;;;;;;5095233;28;20034;-73
2021/06/26 07:25:10;;;;;;;12.68;3.38;;;;;;;;;;5095544;28;20016;-73
2021/06/26 07:27:36;;;;;;;10.20;2.72;;;;;;;;;;5095354;28;20375;-74
2021/06/26 07:30:04;;;;;;;12.80;2.95;;;;;;;;;;5095092;28;20032;-72
2021/06/26 07:32:30;;;;;;;69.70;58.72;;;;;;;;;;5095525;28;20025;-74
2021/06/26 07:34:56;;;;;;;174.75;162.57;;;;;;;;;;5095562;28;20158;-71
2021/06/26 07:37:22;;;;;;;32.40;18.42;;;;;;;;;;5094968;28;20031;-73
2021/06/26 07:39:49;;;;;;;12.18;3.22;;;;;;;;;;5095169;28;20091;-73
2021/06/26 07:42:15;;;;;;;11.73;3.08;;;;;;;;;;5095238;28;20391;-72
2021/06/26 07:44:41;;;;;;;21.27;2.60;;;;;;;;;;5094757;28;20028;-73
2021/06/26 07:47:07;;;;;;;25.80;24.10;;;;;;;;;;5095024;28;20027;-72
2021/06/26 07:49:33;;;;;;;726.63;664.97;;;;;;;;;;5095136;28;20032;-72
2021/06/26 07:52:00;;;;;;;740.33;672.33;;;;;;;;;;5094543;28;20103;-72
2021/06/26 07:54:26;;;;;;;722.05;648.65;;;;;;;;;;5093856;28;20432;-73
2021/06/26 07:56:52;;;;;;;18.02;4.63;;;;;;;;;;5095050;28;20027;-73
2021/06/26 07:59:19;;;;;;;57.17;52.47;;;;;;;;;;5094473;28;20023;-73
2021/06/26 08:01:45;;;;;;;10.07;2.28;;;;;;;;;;5094871;28;20028;-73
2021/06/26 08:04:11;;;;;;;11.25;3.00;;;;;;;;;;5094821;28;20385;-73
2021/06/26 08:06:37;;;;;;;9.60;2.95;;;;;;;;;;5093062;28;20093;-73
2021/06/26 08:09:04;;;;;;;13.73;2.20;;;;;;;;;;5094306;28;20136;-72
2021/06/26 08:11:30;;;;;;;6.82;5.13;;;;;;;;;;5094271;28;20480;-73
2021/06/26 08:13:57;;;;;;;7.93;2.35;;;;;;;;;;5094685;28;20085;-73
2021/06/26 08:16:24;;;;;;;16.45;2.30;;;;;;;;;;5094616;28;20019;-73
2021/06/26 08:18:50;;;;;;;9.30;2.38;;;;;;;;;;5092795;28;20069;-73
2021/06/26 08:21:19;;;;;;;14.32;2.97;;;;;;;;;;5092992;28;20023;-73
2021/06/26 08:23:46;;;;;;;9.57;2.28;;;;;;;;;;5094312;28;20024;-73
2021/06/26 08:26:12;;;;;;;12.38;2.63;;;;;;;;;;5092600;28;20028;-73
2021/06/26 08:28:38;;;;;;;12.05;2.92;;;;;;;;;;5092188;28;20046;-73
2021/06/26 08:31:04;;;;;;;12.38;2.55;;;;;;;;;;5093194;28;20068;-73
2021/06/26 08:33:30;;;;;;;8.73;2.38;;;;;;;;;;5092872;28;20035;-73
2021/06/26 08:35:56;;;;;;;11.57;2.95;;;;;;;;;;5094134;28;20488;-73
2021/06/26 08:38:23;;;;;;;11.68;2.55;;;;;;;;;;5094116;28;20392;-73
2021/06/26 08:40:53;;;;;;;9.38;2.38;;;;;;;;;;5092412;28;20020;-74
2021/06/26 08:43:19;;;;;;;11.63;2.60;;;;;;;;;;5093967;28;20545;-73
2021/06/26 08:45:46;;;;;;;8.23;2.40;;;;;;;;;;5094050;28;20035;-73
2021/06/26 08:48:12;;;;;;;6.18;2.33;;;;;;;;;;5093402;28;20085;-73
2021/06/26 08:50:39;;;;;;;10.27;3.00;;;;;;;;;;5093924;28;20047;-73
2021/06/26 08:53:05;;;;;;;11.70;2.47;;;;;;;;;;5094055;28;20499;-73
2021/06/26 08:55:32;;;;;;;11.85;2.65;;;;;;;;;;5093489;28;20735;-73
2021/06/26 08:57:58;;;;;;;5.13;1.60;;;;;;;;;;5093758;28;20487;-73
2021/06/26 09:00:25;;;;;;;9.55;2.03;;;;;;;;;;5093697;28;20502;-73
2021/06/26 09:02:52;;;;;;;6.55;2.45;;;;;;;;;;5093297;28;20032;-73
2021/06/26 09:05:29;;;;;;;8.93;3.40;;;;;;;;;;5093606;28;20028;-72
2021/06/26 09:07:55;;;;;;;7.75;2.00;;;;;;;;;;5092963;28;20458;-73
2021/06/26 09:10:22;;;;;;;13.63;2.55;;;;;;;;;;5093560;28;20016;-73
2021/06/26 09:12:50;;;;;;;10.70;2.63;;;;;;;;;;5093759;28;20035;-73
2021/06/26 09:15:27;;;;;;;11.82;2.90;;;;;;;;;;5093317;28;20043;-73
2021/06/26 09:17:54;;;;;;;13.35;3.47;;;;;;;;;;5093386;28;20484;-73
2021/06/26 09:20:22;;;;;;;9.15;2.22;;;;;;;;;;5091998;28;20384;-73
2021/06/26 09:22:52;;;;;;;8.63;2.58;;;;;;;;;;5092927;28;20020;-72
2021/06/26 09:25:25;;;;;;;7.88;2.53;;;;;;;;;;5093286;28;20036;-72
2021/06/26 09:27:52;;;;;;;8.77;2.38;;;;;;;;;;5093197;28;20054;-72
2021/06/26 09:30:18;;;;;;;13.27;2.42;;;;;;;;;;5092806;28;20127;-73
2021/06/26 09:32:48;;;;;;;13.00;3.28;;;;;;;;;;5092046;28;20023;-72
2021/06/26 09:35:16;;;;;;;12.20;2.65;;;;;;;;;;5093210;28;20028;-72
2021/06/26 09:37:42;;;;;;;8.32;2.35;;;;;;;;;;5091287;28;20568;-73
2021/06/26 09:40:09;;;;;;;10.77;2.80;;;;;;;;;;5093061;28;20028;-73
2021/06/26 09:42:36;;;;;;;8.30;2.00;;;;;;;;;;5092757;28;20032;-73
2021/06/26 09:45:15;;;;;;;9.80;3.00;;;;;;;;;;5092616;28;20350;-73
2021/06/26 09:47:42;;;;;;;14.63;2.72;;;;;;;;;;5091427;28;20028;-73
2021/06/26 09:50:16;;;;;;;12.45;2.58;;;;;;;;;;5092503;28;20020;-73
2021/06/26 09:52:47;;;;;;;11.63;2.58;;;;;;;;;;5091784;28;20048;-74
2021/06/26 09:55:24;;;;;;;14.68;2.88;;;;;;;;;;5091776;28;20415;-73
2021/06/26 09:57:51;;;;;;;15.90;2.33;;;;;;;;;;5092394;28;20024;-73
2021/06/26 10:00:18;;;;;;;11.98;2.58;;;;;;;;;;5092777;28;20028;-73
2021/06/26 10:02:45;;;;;;;8.63;2.20;;;;;;;;;;5092735;28;20024;-73
2021/06/26 10:05:12;;;;;;;21.80;3.00;;;;;;;;;;5090917;28;20103;-73
2021/06/26 10:07:39;;;;;;;11.90;3.58;;;;;;;;;;5092379;28;20058;-73
2021/06/26 10:10:06;;;;;;;13.45;3.53;;;;;;;;;;5092751;28;20028;-73
2021/06/26 10:12:34;;;;;;;13.10;3.03;;;;;;;;;;5092381;28;20108;-73
2021/06/26 10:15:01;;;;;;;11.25;2.63;;;;;;;;;;5093025;28;20085;-73
2021/06/26 10:17:28;;;;;;;8.15;2.25;;;;;;;;;;5092493;28;20523;-73
2021/06/26 10:19:56;;;;;;;13.75;2.95;;;;;;;;;;5092453;28;20024;-72
2021/06/26 10:22:23;;;;;;;9.00;3.35;;;;;;;;;;5092477;28;20021;-73
2021/06/26 10:24:49;;;;;;;11.77;2.53;;;;;;;;;;5092483;28;20028;-73
2021/06/26 10:27:16;;;;;;;12.77;2.50;;;;;;;;;;5091932;28;20503;-73
2021/06/26 10:29:42;;;;;;;14.43;2.20;;;;;;;;;;5091163;28;20031;-73
2021/06/26 10:32:13;;;;;;;17.63;3.50;;;;;;;;;;5090912;28;20027;-73
2021/06/26 10:34:50;;;;;;;20.40;4.88;;;;;;;;;;5092587;28;20047;-73
2021/06/26 10:37:18;;;;;;;13.35;4.20;;;;;;;;;;5092518;28;20017;-73
2021/06/26 10:39:44;;;;;;;12.00;2.80;;;;;;;;;;5091947;28;20020;-73
2021/06/26 10:42:12;;;;;;;7.78;2.22;;;;;;;;;;5092336;28;20068;-73
2021/06/26 10:44:51;;;;;;;12.65;2.72;;;;;;;;;;5092311;28;20035;-72
2021/06/26 10:47:19;;;;;;;11.73;2.08;;;;;;;;;;5092167;28;20104;-73
2021/06/26 10:49:45;;;;;;;8.95;2.33;;;;;;;;;;5092279;28;20479;-73
2021/06/26 10:52:11;;;;;;;6.93;1.90;;;;;;;;;;5092443;28;20016;-73
2021/06/26 10:54:48;;;;;;;16.73;4.47;;;;;;;;;;5093231;28;20480;-73
2021/06/26 10:57:15;;;;;;;12.23;2.78;;;;;;;;;;5096204;28;20101;-73
2021/06/26 10:59:41;;;;;;;10.70;2.22;;;;;;;;;;5094708;28;20031;-73
2021/06/26 11:02:07;;;;;;;11.13;4.07;;;;;;;;;;5094354;28;20061;-73
2021/06/26 11:04:33;;;;;;;12.82;2.80;;;;;;;;;;5095832;28;20099;-73
2021/06/26 11:07:12;;;;;;;11.98;2.03;;;;;;;;;;5095909;28;20016;-73
2021/06/26 11:09:39;;;;;;;11.85;2.40;;;;;;;;;;5075255;28;20037;-73
2021/06/26 11:12:08;;;;;;;14.43;2.65;;;;;;;;;;5075561;28;20044;-73
2021/06/26 11:14:35;;;;;;;11.25;3.45;;;;;;;;;;5075268;28;20095;-73
2021/06/26 11:17:01;;;;;;;12.13;2.40;;;;;;;;;;5075601;28;20031;-72
2021/06/26 11:19:31;;;;;;;15.35;3.38;;;;;;;;;;5075432;28;20357;-73
2021/06/26 11:21:58;;;;;;;17.02;3.67;;;;;;;;;;5074933;28;20089;-72
2021/06/26 11:24:38;;;;;;;13.57;3.22;;;;;;;;;;5075361;28;20032;-72
2021/06/26 11:27:05;;;;;;;9.02;2.60;;;;;;;;;;5075320;28;20024;-72
2021/06/26 11:29:39;;;;;;;14.38;2.92;;;;;;;;;;5074938;28;20040;-72
2021/06/26 11:32:06;;;;;;;15.80;2.25;;;;;;;;;;5074202;28;20469;-72
2021/06/26 11:34:33;;;;;;;12.63;3.00;;;;;;;;;;5075304;28;20029;-72
2021/06/26 11:37:06;;;;;;;14.38;3.28;;;;;;;;;;5074835;28;20021;-72
2021/06/26 11:39:33;;;;;;;11.85;3.22;;;;;;;;;;5075159;28;20452;-73
2021/06/26 11:42:00;;;;;;;10.75;3.10;;;;;;;;;;5075035;28;20028;-73
2021/06/26 11:44:33;;;;;;;9.80;2.70;;;;;;;;;;5074885;28;20374;-73
2021/06/26 11:47:00;;;;;;;13.02;2.90;;;;;;;;;;5074891;28;20035;-72
2021/06/26 11:49:36;;;;;;;13.18;2.42;;;;;;;;;;5075008;28;20032;-73
2021/06/26 11:52:02;;;;;;;11.93;2.33;;;;;;;;;;5074686;28;20020;-73
2021/06/26 11:54:29;;;;;;;14.32;2.55;;;;;;;;;;5075203;28;20096;-73
2021/06/26 11:56:55;;;;;;;16.55;2.75;;;;;;;;;;5075110;28;20024;-73
2021/06/26 11:59:22;;;;;;;17.15;3.47;;;;;;;;;;5075832;28;20381;-73
2021/06/26 12:01:50;;;;;;;12.82;3.67;;;;;;;;;;5073351;28;20024;-73
2021/06/26 12:04:29;;;;;;;9.35;2.75;;;;;;;;;;5074225;28;20048;-73
2021/06/26 12:06:56;;;;;;;15.90;3.25;;;;;;;;;;5074523;28;20017;-73
2021/06/26 12:09:23;;;;;;;11.25;2.55;;;;;;;;;;5093005;28;20047;-73
2021/06/26 12:11:50;;;;;;;8.05;1.98;;;;;;;;;;5094743;28;20040;-73
2021/06/26 12:14:16;;;;;;;7.95;2.22;;;;;;;;;;5094638;28;20020;-73
2021/06/26 12:16:43;;;;;;;12.18;2.58;;;;;;;;;;5094761;28;20016;-73
2021/06/26 12:19:10;;;;;;;12.38;2.67;;;;;;;;;;5093242;28;20027;-73
2021/06/26 12:21:39;;;;;;;10.60;2.15;;;;;;;;;;5094602;28;20028;-73
2021/06/26 12:24:06;;;;;;;10.07;2.40;;;;;;;;;;5094410;28;20052;-73
2021/06/26 12:26:33;;;;;;;6.65;1.77;;;;;;;;;;5094031;28;20437;-74
2021/06/26 12:28:59;;;;;;;10.77;2.22;;;;;;;;;;5094607;28;20036;-73
2021/06/26 12:31:25;;;;;;;12.70;3.38;;;;;;;;;;5094548;28;20022;-74
2021/06/26 12:34:07;;;;;;;7.90;2.00;;;;;;;;;;5093885;28;20026;-74
2021/06/26 12:36:35;;;;;;;18.67;3.25;;;;;;;;;;5092904;28;20111;-74
2021/06/26 12:39:01;;;;;;;19.52;2.85;;;;;;;;;;5093669;28;20502;-74
2021/06/26 12:41:29;;;;;;;12.88;2.72;;;;;;;;;;5094067;28;20034;-74
2021/06/26 12:44:00;;;;;;;21.92;3.85;;;;;;;;;;5094088;28;20031;-74
2021/06/26 12:46:30;;;;;;;22.02;4.00;;;;;;;;;;5093685;28;20027;-73
2021/06/26 12:49:02;;;;;;;10.57;2.83;;;;;;;;;;5093988;28;20043;-73
2021/06/26 12:51:38;;;;;;;11.50;2.38;;;;;;;;;;5094140;28;20103;-73
2021/06/26 12:54:09;;;;;;;13.23;2.65;;;;;;;;;;5092247;28;20027;-74
2021/06/26 12:56:37;;;;;;;11.67;2.83;;;;;;;;;;5093906;28;20072;-73
2021/06/26 12:59:04;;;;;;;14.40;3.10;;;;;;;;;;5093865;28;20514;-74
2021/06/26 13:01:53;;;;;;;14.77;3.45;;;;;;;;;;5093284;28;20430;-73
2021/06/26 13:04:20;;;;;;;15.25;3.47;;;;;;;;;;5093768;28;20560;-73
2021/06/26 13:06:50;;;;;;;16.95;2.85;;;;;;;;;;5093624;28;20476;-73
2021/06/26 13:09:19;;;;;;;13.52;3.50;;;;;;;;;;5093110;28;20040;-73
2021/06/26 13:11:46;;;;;;;17.55;3.72;;;;;;;;;;5093831;28;20431;-73
2021/06/26 13:14:16;;;;;;;13.82;3.15;;;;;;;;;;5093287;28;20503;-73
2021/06/26 13:16:43;;;;;;;12.63;3.53;;;;;;;;;;5093197;28;20037;-73
2021/06/26 13:19:10;;;;;;;17.45;3.72;;;;;;;;;;5092036;28;20039;-73
2021/06/26 13:21:47;;;;;;;13.60;3.42;;;;;;;;;;5091606;28;20024;-73
2021/06/26 13:24:14;;;;;;;11.85;3.25;;;;;;;;;;5093328;28;20066;-73
2021/06/26 13:26:40;;;;;;;10.63;2.80;;;;;;;;;;5093339;28;20421;-73
2021/06/26 13:29:06;;;;;;;16.00;2.72;;;;;;;;;;5091536;28;20036;-73
2021/06/26 13:31:33;;;;;;;15.63;3.25;;;;;;;;;;5092164;28;20020;-73
2021/06/26 13:33:59;;;;;;;15.55;3.40;;;;;;;;;;5091983;28;20026;-73
2021/06/26 13:36:25;;;;;;;17.20;3.92;;;;;;;;;;5092779;28;20043;-73
2021/06/26 13:38:52;;;;;;;15.45;2.72;;;;;;;;;;5093136;28;20052;-73
2021/06/26 13:41:18;;;;;;;12.68;3.00;;;;;;;;;;5093128;28;20093;-73
2021/06/26 13:43:44;;;;;;;15.25;2.95;;;;;;;;;;5092596;28;20103;-73
2021/06/26 13:46:11;;;;;;;13.32;4.05;;;;;;;;;;5091661;28;20556;-73
2021/06/26 13:48:37;;;;;;;14.18;3.35;;;;;;;;;;5091682;28;20060;-74
2021/06/26 13:51:03;;;;;;;14.65;3.22;;;;;;;;;;5092744;28;20477;-72
2021/06/26 13:53:29;;;;;;;10.35;2.75;;;;;;;;;;5092999;28;20048;-73
2021/06/26 13:55:56;;;;;;;7.90;3.10;;;;;;;;;;5091534;28;20028;-73
2021/06/26 13:58:22;;;;;;;10.75;3.17;;;;;;;;;;5091167;28;20456;-73
2021/06/26 14:00:49;;;;;;;13.65;3.22;;;;;;;;;;5091523;28;20016;-73
2021/06/26 14:03:15;;;;;;;13.02;3.65;;;;;;;;;;5092717;28;20107;-72
2021/06/26 14:05:42;;;;;;;12.00;3.00;;;;;;;;;;5092585;28;20537;-73
2021/06/26 14:08:09;;;;;;;10.93;2.90;;;;;;;;;;5091130;28;20139;-72
2021/06/26 14:10:36;;;;;;;11.95;2.83;;;;;;;;;;5092686;28;20027;-73
2021/06/26 14:13:02;;;;;;;13.20;3.13;;;;;;;;;;5092863;28;20024;-73
2021/06/26 14:15:28;;;;;;;11.75;2.80;;;;;;;;;;5092684;28;20051;-73
2021/06/26 14:17:54;;;;;;;11.60;3.30;;;;;;;;;;5090973;28;20020;-73
2021/06/26 14:20:21;;;;;;;15.10;3.50;;;;;;;;;;5092942;28;20372;-73
2021/06/26 14:22:47;;;;;;;13.30;3.83;;;;;;;;;;5091330;28;20130;-73
2021/06/26 14:25:14;;;;;;;13.40;3.33;;;;;;;;;;5092227;28;20028;-73
2021/06/26 14:27:40;;;;;;;13.48;3.13;;;;;;;;;;5092432;28;20038;-72
2021/06/26 14:30:07;;;;;;;15.68;3.95;;;;;;;;;;5094715;28;20070;-72
2021/06/26 14:32:34;;;;;;;16.27;3.60;;;;;;;;;;5095147;28;20020;-72
2021/06/26 14:35:01;;;;;;;9.93;3.20;;;;;;;;;;5096614;28;20032;-73
2021/06/26 14:37:27;;;;;;;10.32;3.05;;;;;;;;;;5095209;28;20117;-72
2021/06/26 14:39:54;;;;;;;14.75;3.30;;;;;;;;;;5096034;28;20067;-72
2021/06/26 14:42:22;;;;;;;14.00;3.40;;;;;;;;;;5096371;28;20464;-72
2021/06/26 14:44:48;;;;;;;12.65;3.38;;;;;;;;;;5096432;28;20506;-72
2021/06/26 14:47:14;;;;;;;15.77;3.78;;;;;;;;;;5094657;28;20047;-72
2021/06/26 14:49:41;;;;;;;12.82;3.28;;;;;;;;;;5095051;28;20107;-72
2021/06/26 14:52:07;;;;;;;10.50;2.50;;;;;;;;;;5095054;28;20149;-72
2021/06/26 14:54:33;;;;;;;11.77;3.13;;;;;;;;;;5095723;28;20099;-72
2021/06/26 14:57:00;;;;;;;9.73;3.00;;;;;;;;;;5096100;28;20104;-72
2021/06/26 14:59:26;;;;;;;12.70;3.28;;;;;;;;;;5096153;28;20020;-73
2021/06/26 15:01:52;;;;;;;12.40;2.85;;;;;;;;;;5095668;28;20052;-72
2021/06/26 15:04:18;;;;;;;13.98;4.07;;;;;;;;;;5096012;28;20024;-73
2021/06/26 15:06:45;;;;;;;15.13;3.78;;;;;;;;;;5095757;28;20023;-73